sensor_id;sensor_type;location;lat;lon;timestamp;temperature;humidity
23149;DHT22;11743;51.228;22.498;2022-09-19T00:00:06;9.20;99.90
23149;DHT22;11743;51.228;22.498;2022-09-19T00:00:28;9.20;99.90
23149;DHT22;11743;51.228;22.498;2022-09-19T00:00:50;9.20;99.90
23149;DHT22;11743;51.228;22.498;2022-09-19T00:01:18;9.20;99.90
23149;DHT22;11743;51.228;22.498;2022-09-19T00:01:43;9.20;99.90
23149;DHT22;11743;51.228;22.498;2022-09-19T00:02:06;9.20;99.90
23149;DHT22;11743;51.228;22.498;2022-09-19T00:02:28;9.20;99.90
23149;DHT22;11743;51.228;22.498;2022-09-19T00:02:50;9.20;99.90
23149;DHT22;11743;51.228;22.498;2022-09-19T00:03:12;9.20;99.90
23149;DHT22;11743;51.228;22.498;2022-09-19T00:03:34;9.20;99.90
23149;DHT22;11743;51.228;22.498;2022-09-19T00:04:00;9.20;99.90
23149;DHT22;11743;51.228;22.498;2022-09-19T00:04:26;9.10;99.90
23149;DHT22;11743;51.228;22.498;2022-09-19T00:04:49;9.20;99.90
23149;DHT22;11743;51.228;22.498;2022-09-19T00:05:11;9.20;99.90
23149;DHT22;11743;51.228;22.498;2022-09-19T00:05:37;9.20;99.90
23149;DHT22;11743;51.228;22.498;2022-09-19T00:05:59;9.20;99.90
23149;DHT22;11743;51.228;22.498;2022-09-19T00:06:22;9.10;99.90
23149;DHT22;11743;51.228;22.498;2022-09-19T00:06:45;9.10;99.90
23149;DHT22;11743;51.228;22.498;2022-09-19T00:07:08;9.10;99.90
23149;DHT22;11743;51.228;22.498;2022-09-19T00:07:29;9.10;99.90
23149;DHT22;11743;51.228;22.498;2022-09-19T00:07:52;9.10;99.90
23149;DHT22;11743;51.228;22.498;2022-09-19T00:08:13;9.10;99.90
23149;DHT22;11743;51.228;22.498;2022-09-19T00:08:38;9.10;99.90
23149;DHT22;11743;51.228;22.498;2022-09-19T00:09:00;9.10;99.90
23149;DHT22;11743;51.228;22.498;2022-09-19T00:09:24;9.10;99.90
23149;DHT22;11743;51.228;22.498;2022-09-19T00:09:47;9.10;99.90
23149;DHT22;11743;51.228;22.498;2022-09-19T00:10:12;9.10;99.90
23149;DHT22;11743;51.228;22.498;2022-09-19T00:10:41;9.10;99.90
23149;DHT22;11743;51.228;22.498;2022-09-19T00:11:03;9.00;99.90
23149;DHT22;11743;51.228;22.498;2022-09-19T00:11:28;9.00;99.90
23149;DHT22;11743;51.228;22.498;2022-09-19T00:11:52;9.00;99.90
23149;DHT22;11743;51.228;22.498;2022-09-19T00:12:14;9.00;99.90
23149;DHT22;11743;51.228;22.498;2022-09-19T00:12:36;9.00;99.90
23149;DHT22;11743;51.228;22.498;2022-09-19T00:12:58;9.00;99.90
23149;DHT22;11743;51.228;22.498;2022-09-19T00:13:20;9.00;99.90
23149;DHT22;11743;51.228;22.498;2022-09-19T00:13:43;8.90;99.90
23149;DHT22;11743;51.228;22.498;2022-09-19T00:14:10;8.90;99.90
23149;DHT22;11743;51.228;22.498;2022-09-19T00:14:36;9.00;99.90
23149;DHT22;11743;51.228;22.498;2022-09-19T00:14:58;8.90;99.90
23149;DHT22;11743;51.228;22.498;2022-09-19T00:15:20;8.90;99.90
23149;DHT22;11743;51.228;22.498;2022-09-19T00:15:48;8.90;99.90
23149;DHT22;11743;51.228;22.498;2022-09-19T00:16:18;9.00;99.90
23149;DHT22;11743;51.228;22.498;2022-09-19T00:16:43;9.00;99.90
23149;DHT22;11743;51.228;22.498;2022-09-19T00:17:09;8.90;99.90
23149;DHT22;11743;51.228;22.498;2022-09-19T00:17:31;8.90;99.90
23149;DHT22;11743;51.228;22.498;2022-09-19T00:17:53;8.90;99.90
23149;DHT22;11743;51.228;22.498;2022-09-19T00:18:16;8.90;99.90
23149;DHT22;11743;51.228;22.498;2022-09-19T00:18:38;8.90;99.90
23149;DHT22;11743;51.228;22.498;2022-09-19T00:19:03;8.80;99.90
23149;DHT22;11743;51.228;22.498;2022-09-19T00:19:26;8.80;99.90
23149;DHT22;11743;51.228;22.498;2022-09-19T00:19:48;8.80;99.90
23149;DHT22;11743;51.228;22.498;2022-09-19T00:20:10;8.80;99.90
23149;DHT22;11743;51.228;22.498;2022-09-19T00:20:39;8.80;99.90
23149;DHT22;11743;51.228;22.498;2022-09-19T00:21:02;8.80;99.90
23149;DHT22;11743;51.228;22.498;2022-09-19T00:21:29;8.80;99.90
23149;DHT22;11743;51.228;22.498;2022-09-19T00:21:54;8.70;99.90
23149;DHT22;11743;51.228;22.498;2022-09-19T00:22:17;8.30;99.90
23149;DHT22;11743;51.228;22.498;2022-09-19T00:22:39;8.70;99.90
23149;DHT22;11743;51.228;22.498;2022-09-19T00:23:20;8.70;99.90
23149;DHT22;11743;51.228;22.498;2022-09-19T00:24:02;8.60;99.90
23149;DHT22;11743;51.228;22.498;2022-09-19T00:24:43;8.60;99.90
23149;DHT22;11743;51.228;22.498;2022-09-19T00:25:08;8.50;99.90
23149;DHT22;11743;51.228;22.498;2022-09-19T00:25:30;8.50;99.90
23149;DHT22;11743;51.228;22.498;2022-09-19T00:26:06;8.50;99.90
23149;DHT22;11743;51.228;22.498;2022-09-19T00:26:28;8.50;99.90
23149;DHT22;11743;51.228;22.498;2022-09-19T00:26:51;8.40;99.90
23149;DHT22;11743;51.228;22.498;2022-09-19T00:27:23;8.40;99.90
23149;DHT22;11743;51.228;22.498;2022-09-19T00:27:46;8.40;99.90
23149;DHT22;11743;51.228;22.498;2022-09-19T00:28:09;8.30;99.90
23149;DHT22;11743;51.228;22.498;2022-09-19T00:28:31;8.30;99.90
23149;DHT22;11743;51.228;22.498;2022-09-19T00:28:52;8.30;99.90
23149;DHT22;11743;51.228;22.498;2022-09-19T00:29:16;8.30;99.90
23149;DHT22;11743;51.228;22.498;2022-09-19T00:29:40;8.20;99.90
23149;DHT22;11743;51.228;22.498;2022-09-19T00:30:04;8.20;99.90
23149;DHT22;11743;51.228;22.498;2022-09-19T00:30:26;8.20;99.90
23149;DHT22;11743;51.228;22.498;2022-09-19T00:30:48;8.20;99.90
23149;DHT22;11743;51.228;22.498;2022-09-19T00:31:17;8.20;99.90
23149;DHT22;11743;51.228;22.498;2022-09-19T00:31:39;8.20;99.90
23149;DHT22;11743;51.228;22.498;2022-09-19T00:32:03;8.20;99.90
23149;DHT22;11743;51.228;22.498;2022-09-19T00:32:29;8.20;99.90
23149;DHT22;11743;51.228;22.498;2022-09-19T00:32:52;8.20;99.90
23149;DHT22;11743;51.228;22.498;2022-09-19T00:33:15;8.20;99.90
23149;DHT22;11743;51.228;22.498;2022-09-19T00:33:37;8.10;99.90
23149;DHT22;11743;51.228;22.498;2022-09-19T00:33:59;8.10;99.90
23149;DHT22;11743;51.228;22.498;2022-09-19T00:34:22;8.10;99.90
23149;DHT22;11743;51.228;22.498;2022-09-19T00:34:47;8.10;99.90
23149;DHT22;11743;51.228;22.498;2022-09-19T00:35:09;8.20;99.90
23149;DHT22;11743;51.228;22.498;2022-09-19T00:35:32;8.10;99.90
23149;DHT22;11743;51.228;22.498;2022-09-19T00:35:55;8.20;99.90
23149;DHT22;11743;51.228;22.498;2022-09-19T00:36:17;8.10;99.90
23149;DHT22;11743;51.228;22.498;2022-09-19T00:36:39;8.10;99.90
23149;DHT22;11743;51.228;22.498;2022-09-19T00:37:02;8.10;99.90
23149;DHT22;11743;51.228;22.498;2022-09-19T00:37:24;8.10;99.90
23149;DHT22;11743;51.228;22.498;2022-09-19T00:37:46;8.10;99.90
23149;DHT22;11743;51.228;22.498;2022-09-19T00:38:08;8.10;99.90
23149;DHT22;11743;51.228;22.498;2022-09-19T00:38:31;8.10;99.90
23149;DHT22;11743;51.228;22.498;2022-09-19T00:38:53;8.00;99.90
23149;DHT22;11743;51.228;22.498;2022-09-19T00:39:17;8.00;99.90
23149;DHT22;11743;51.228;22.498;2022-09-19T00:39:40;8.00;99.90
23149;DHT22;11743;51.228;22.498;2022-09-19T00:40:04;8.00;99.90
23149;DHT22;11743;51.228;22.498;2022-09-19T00:40:26;7.40;99.90
23149;DHT22;11743;51.228;22.498;2022-09-19T00:40:49;8.00;99.90
23149;DHT22;11743;51.228;22.498;2022-09-19T00:41:20;8.00;99.90
23149;DHT22;11743;51.228;22.498;2022-09-19T00:41:44;8.00;99.90
23149;DHT22;11743;51.228;22.498;2022-09-19T00:42:21;7.70;99.90
23149;DHT22;11743;51.228;22.498;2022-09-19T00:42:43;7.90;99.90
23149;DHT22;11743;51.228;22.498;2022-09-19T00:43:05;7.90;99.90
23149;DHT22;11743;51.228;22.498;2022-09-19T00:44:55;7.90;99.90
23149;DHT22;11743;51.228;22.498;2022-09-19T00:45:18;7.90;99.90
23149;DHT22;11743;51.228;22.498;2022-09-19T00:45:40;7.90;99.90
23149;DHT22;11743;51.228;22.498;2022-09-19T00:46:04;7.90;99.90
23149;DHT22;11743;51.228;22.498;2022-09-19T00:46:28;7.90;99.90
23149;DHT22;11743;51.228;22.498;2022-09-19T00:46:52;7.90;99.90
23149;DHT22;11743;51.228;22.498;2022-09-19T00:47:18;7.90;99.90
23149;DHT22;11743;51.228;22.498;2022-09-19T00:47:46;7.90;99.90
23149;DHT22;11743;51.228;22.498;2022-09-19T00:48:09;7.90;99.90
23149;DHT22;11743;51.228;22.498;2022-09-19T00:48:32;7.80;99.90
23149;DHT22;11743;51.228;22.498;2022-09-19T00:49:05;7.80;99.90
23149;DHT22;11743;51.228;22.498;2022-09-19T00:49:33;7.80;99.90
23149;DHT22;11743;51.228;22.498;2022-09-19T00:49:58;7.80;99.90
23149;DHT22;11743;51.228;22.498;2022-09-19T00:50:26;7.80;99.90
23149;DHT22;11743;51.228;22.498;2022-09-19T00:50:52;7.80;99.90
23149;DHT22;11743;51.228;22.498;2022-09-19T00:51:21;7.80;99.90
23149;DHT22;11743;51.228;22.498;2022-09-19T00:51:51;7.70;99.90
23149;DHT22;11743;51.228;22.498;2022-09-19T00:52:18;7.70;99.90
23149;DHT22;11743;51.228;22.498;2022-09-19T00:52:46;7.70;99.90
23149;DHT22;11743;51.228;22.498;2022-09-19T00:53:16;7.70;99.90
23149;DHT22;11743;51.228;22.498;2022-09-19T00:53:39;7.60;99.90
23149;DHT22;11743;51.228;22.498;2022-09-19T00:54:14;7.60;99.90
23149;DHT22;11743;51.228;22.498;2022-09-19T00:54:42;7.60;99.90
23149;DHT22;11743;51.228;22.498;2022-09-19T00:55:05;7.60;99.90
23149;DHT22;11743;51.228;22.498;2022-09-19T00:55:27;7.50;99.90
23149;DHT22;11743;51.228;22.498;2022-09-19T00:55:53;7.50;99.90
23149;DHT22;11743;51.228;22.498;2022-09-19T00:56:16;7.50;99.90
23149;DHT22;11743;51.228;22.498;2022-09-19T00:56:45;7.40;99.90
23149;DHT22;11743;51.228;22.498;2022-09-19T00:57:10;7.40;99.90
23149;DHT22;11743;51.228;22.498;2022-09-19T00:57:46;7.40;99.90
23149;DHT22;11743;51.228;22.498;2022-09-19T00:58:30;7.40;99.90
23149;DHT22;11743;51.228;22.498;2022-09-19T00:58:53;7.40;99.90
23149;DHT22;11743;51.228;22.498;2022-09-19T00:59:16;7.30;99.90
23149;DHT22;11743;51.228;22.498;2022-09-19T00:59:42;7.30;99.90
23149;DHT22;11743;51.228;22.498;2022-09-19T01:00:06;7.30;99.90
23149;DHT22;11743;51.228;22.498;2022-09-19T01:00:29;7.30;99.90
23149;DHT22;11743;51.228;22.498;2022-09-19T01:00:51;7.30;99.90
23149;DHT22;11743;51.228;22.498;2022-09-19T01:01:16;7.30;99.90
23149;DHT22;11743;51.228;22.498;2022-09-19T01:01:38;7.30;99.90
23149;DHT22;11743;51.228;22.498;2022-09-19T01:02:05;7.30;99.90
23149;DHT22;11743;51.228;22.498;2022-09-19T01:02:28;7.30;99.90
23149;DHT22;11743;51.228;22.498;2022-09-19T01:02:52;7.30;99.90
23149;DHT22;11743;51.228;22.498;2022-09-19T01:03:14;7.30;99.90
23149;DHT22;11743;51.228;22.498;2022-09-19T01:03:37;7.30;99.90
23149;DHT22;11743;51.228;22.498;2022-09-19T01:03:59;7.30;99.90
23149;DHT22;11743;51.228;22.498;2022-09-19T01:04:26;7.20;99.90
23149;DHT22;11743;51.228;22.498;2022-09-19T01:04:51;7.30;99.90
23149;DHT22;11743;51.228;22.498;2022-09-19T01:05:13;7.30;99.90
23149;DHT22;11743;51.228;22.498;2022-09-19T01:06:27;7.30;99.90
23149;DHT22;11743;51.228;22.498;2022-09-19T01:08:02;7.20;99.90
23149;DHT22;11743;51.228;22.498;2022-09-19T01:08:35;7.20;99.90
23149;DHT22;11743;51.228;22.498;2022-09-19T01:09:53;7.20;99.90
23149;DHT22;11743;51.228;22.498;2022-09-19T01:15:54;7.40;99.90
23149;DHT22;11743;51.228;22.498;2022-09-19T01:16:49;7.10;99.90
23149;DHT22;11743;51.228;22.498;2022-09-19T01:17:19;7.10;99.90
23149;DHT22;11743;51.228;22.498;2022-09-19T01:17:55;7.10;99.90
23149;DHT22;11743;51.228;22.498;2022-09-19T01:18:23;7.10;99.90
23149;DHT22;11743;51.228;22.498;2022-09-19T01:18:57;7.10;99.90
23149;DHT22;11743;51.228;22.498;2022-09-19T01:20:56;7.10;99.90
23149;DHT22;11743;51.228;22.498;2022-09-19T01:21:29;7.10;99.90
23149;DHT22;11743;51.228;22.498;2022-09-19T01:23:13;7.10;99.90
23149;DHT22;11743;51.228;22.498;2022-09-19T01:24:58;7.00;99.90
23149;DHT22;11743;51.228;22.498;2022-09-19T01:25:29;6.90;99.90
23149;DHT22;11743;51.228;22.498;2022-09-19T01:28:09;6.90;99.90
23149;DHT22;11743;51.228;22.498;2022-09-19T01:28:39;6.90;99.90
23149;DHT22;11743;51.228;22.498;2022-09-19T01:29:13;6.80;99.90
23149;DHT22;11743;51.228;22.498;2022-09-19T01:29:44;6.80;99.90
23149;DHT22;11743;51.228;22.498;2022-09-19T01:30:11;6.80;99.90
23149;DHT22;11743;51.228;22.498;2022-09-19T01:30:37;6.80;99.90
23149;DHT22;11743;51.228;22.498;2022-09-19T01:31:05;6.80;99.90
23149;DHT22;11743;51.228;22.498;2022-09-19T01:31:46;6.80;99.90
23149;DHT22;11743;51.228;22.498;2022-09-19T01:32:14;6.80;99.90
23149;DHT22;11743;51.228;22.498;2022-09-19T01:32:55;6.80;99.90
23149;DHT22;11743;51.228;22.498;2022-09-19T01:33:19;6.70;99.90
23149;DHT22;11743;51.228;22.498;2022-09-19T01:34:44;6.70;99.90
23149;DHT22;11743;51.228;22.498;2022-09-19T01:35:12;6.70;99.90
23149;DHT22;11743;51.228;22.498;2022-09-19T01:35:48;6.70;99.90
23149;DHT22;11743;51.228;22.498;2022-09-19T01:36:13;6.70;99.90
23149;DHT22;11743;51.228;22.498;2022-09-19T01:36:43;6.60;99.90
23149;DHT22;11743;51.228;22.498;2022-09-19T01:37:20;6.60;99.90
23149;DHT22;11743;51.228;22.498;2022-09-19T01:37:59;6.60;99.90
23149;DHT22;11743;51.228;22.498;2022-09-19T01:38:27;6.60;99.90
23149;DHT22;11743;51.228;22.498;2022-09-19T01:38:50;6.60;99.90
23149;DHT22;11743;51.228;22.498;2022-09-19T01:39:20;6.60;99.90
23149;DHT22;11743;51.228;22.498;2022-09-19T01:39:46;6.60;99.90
23149;DHT22;11743;51.228;22.498;2022-09-19T01:40:11;6.60;99.90
23149;DHT22;11743;51.228;22.498;2022-09-19T01:40:35;6.60;99.90
23149;DHT22;11743;51.228;22.498;2022-09-19T01:40:59;6.60;99.90
23149;DHT22;11743;51.228;22.498;2022-09-19T01:41:21;6.50;99.90
23149;DHT22;11743;51.228;22.498;2022-09-19T01:41:50;6.60;99.90
23149;DHT22;11743;51.228;22.498;2022-09-19T01:42:14;6.60;99.90
23149;DHT22;11743;51.228;22.498;2022-09-19T01:42:48;6.60;99.90
23149;DHT22;11743;51.228;22.498;2022-09-19T01:43:15;6.50;99.90
23149;DHT22;11743;51.228;22.498;2022-09-19T01:43:37;6.50;99.90
23149;DHT22;11743;51.228;22.498;2022-09-19T01:44:03;6.50;99.90
23149;DHT22;11743;51.228;22.498;2022-09-19T01:44:30;6.50;99.90
23149;DHT22;11743;51.228;22.498;2022-09-19T01:44:52;6.50;99.90
23149;DHT22;11743;51.228;22.498;2022-09-19T01:45:15;6.50;99.90
23149;DHT22;11743;51.228;22.498;2022-09-19T01:45:37;6.50;99.90
23149;DHT22;11743;51.228;22.498;2022-09-19T01:46:08;6.50;99.90
23149;DHT22;11743;51.228;22.498;2022-09-19T01:46:51;6.50;99.90
23149;DHT22;11743;51.228;22.498;2022-09-19T01:48:24;6.60;99.90
23149;DHT22;11743;51.228;22.498;2022-09-19T01:48:54;6.50;99.90
23149;DHT22;11743;51.228;22.498;2022-09-19T01:50:03;6.50;99.90
23149;DHT22;11743;51.228;22.498;2022-09-19T01:51:06;6.50;99.90
23149;DHT22;11743;51.228;22.498;2022-09-19T01:51:36;6.50;99.90
23149;DHT22;11743;51.228;22.498;2022-09-19T01:54:48;6.40;99.90
23149;DHT22;11743;51.228;22.498;2022-09-19T01:55:28;6.40;99.90
23149;DHT22;11743;51.228;22.498;2022-09-19T01:56:19;6.40;99.90
23149;DHT22;11743;51.228;22.498;2022-09-19T01:57:52;6.40;99.90
23149;DHT22;11743;51.228;22.498;2022-09-19T01:58:26;6.40;99.90
23149;DHT22;11743;51.228;22.498;2022-09-19T01:59:29;6.30;99.90
23149;DHT22;11743;51.228;22.498;2022-09-19T02:00:32;6.30;99.90
23149;DHT22;11743;51.228;22.498;2022-09-19T02:01:02;6.30;99.90
23149;DHT22;11743;51.228;22.498;2022-09-19T02:04:09;6.40;99.90
23149;DHT22;11743;51.228;22.498;2022-09-19T02:04:45;6.40;99.90
23149;DHT22;11743;51.228;22.498;2022-09-19T02:05:26;6.30;99.90
23149;DHT22;11743;51.228;22.498;2022-09-19T02:06:51;6.30;99.90
23149;DHT22;11743;51.228;22.498;2022-09-19T02:07:25;6.30;99.90
23149;DHT22;11743;51.228;22.498;2022-09-19T02:08:29;6.30;99.90
23149;DHT22;11743;51.228;22.498;2022-09-19T02:09:02;6.20;99.90
23149;DHT22;11743;51.228;22.498;2022-09-19T02:09:52;6.30;99.90
23149;DHT22;11743;51.228;22.498;2022-09-19T02:10:22;6.30;99.90
23149;DHT22;11743;51.228;22.498;2022-09-19T02:10:51;6.30;99.90
23149;DHT22;11743;51.228;22.498;2022-09-19T02:11:19;6.30;99.90
23149;DHT22;11743;51.228;22.498;2022-09-19T02:11:42;6.30;99.90
23149;DHT22;11743;51.228;22.498;2022-09-19T02:12:05;6.30;99.90
23149;DHT22;11743;51.228;22.498;2022-09-19T02:12:31;6.30;99.90
23149;DHT22;11743;51.228;22.498;2022-09-19T02:12:57;6.30;99.90
23149;DHT22;11743;51.228;22.498;2022-09-19T02:13:27;6.40;99.90
23149;DHT22;11743;51.228;22.498;2022-09-19T02:13:57;6.40;99.90
23149;DHT22;11743;51.228;22.498;2022-09-19T02:14:24;6.40;99.90
23149;DHT22;11743;51.228;22.498;2022-09-19T02:14:51;6.40;99.90
23149;DHT22;11743;51.228;22.498;2022-09-19T02:15:17;6.40;99.90
23149;DHT22;11743;51.228;22.498;2022-09-19T02:15:44;6.40;99.90
23149;DHT22;11743;51.228;22.498;2022-09-19T02:16:12;6.40;99.90
23149;DHT22;11743;51.228;22.498;2022-09-19T02:16:42;6.40;99.90
23149;DHT22;11743;51.228;22.498;2022-09-19T02:17:14;6.40;99.90
23149;DHT22;11743;51.228;22.498;2022-09-19T02:17:54;6.40;99.90
23149;DHT22;11743;51.228;22.498;2022-09-19T02:18:27;5.70;99.90
23149;DHT22;11743;51.228;22.498;2022-09-19T02:19:05;6.40;99.90
23149;DHT22;11743;51.228;22.498;2022-09-19T02:19:31;6.40;99.90
23149;DHT22;11743;51.228;22.498;2022-09-19T02:20:05;6.40;99.90
23149;DHT22;11743;51.228;22.498;2022-09-19T02:20:33;6.40;99.90
23149;DHT22;11743;51.228;22.498;2022-09-19T02:21:04;6.40;99.90
23149;DHT22;11743;51.228;22.498;2022-09-19T02:21:33;6.30;99.90
23149;DHT22;11743;51.228;22.498;2022-09-19T02:22:03;6.40;99.90
23149;DHT22;11743;51.228;22.498;2022-09-19T02:22:32;6.40;99.90
23149;DHT22;11743;51.228;22.498;2022-09-19T02:23:05;6.40;99.90
23149;DHT22;11743;51.228;22.498;2022-09-19T02:23:29;6.30;99.90
23149;DHT22;11743;51.228;22.498;2022-09-19T02:23:55;6.40;99.90
23149;DHT22;11743;51.228;22.498;2022-09-19T02:24:26;6.30;99.90
23149;DHT22;11743;51.228;22.498;2022-09-19T02:24:49;6.30;99.90
23149;DHT22;11743;51.228;22.498;2022-09-19T02:25:19;6.30;99.90
23149;DHT22;11743;51.228;22.498;2022-09-19T02:25:43;6.30;99.90
23149;DHT22;11743;51.228;22.498;2022-09-19T02:26:06;6.30;99.90
23149;DHT22;11743;51.228;22.498;2022-09-19T02:26:32;6.30;99.90
23149;DHT22;11743;51.228;22.498;2022-09-19T02:27:01;6.30;99.90
23149;DHT22;11743;51.228;22.498;2022-09-19T02:27:41;6.30;99.90
23149;DHT22;11743;51.228;22.498;2022-09-19T02:28:14;6.30;99.90
23149;DHT22;11743;51.228;22.498;2022-09-19T02:28:41;6.30;99.90
23149;DHT22;11743;51.228;22.498;2022-09-19T02:29:08;6.20;99.90
23149;DHT22;11743;51.228;22.498;2022-09-19T02:29:32;6.20;99.90
23149;DHT22;11743;51.228;22.498;2022-09-19T02:30:02;6.20;99.90
23149;DHT22;11743;51.228;22.498;2022-09-19T02:30:28;6.20;99.90
23149;DHT22;11743;51.228;22.498;2022-09-19T02:30:50;6.20;99.90
23149;DHT22;11743;51.228;22.498;2022-09-19T02:31:12;6.20;99.90
23149;DHT22;11743;51.228;22.498;2022-09-19T02:31:35;6.20;99.90
23149;DHT22;11743;51.228;22.498;2022-09-19T02:32:00;6.20;99.90
23149;DHT22;11743;51.228;22.498;2022-09-19T02:32:22;6.10;99.90
23149;DHT22;11743;51.228;22.498;2022-09-19T02:32:45;6.20;99.90
23149;DHT22;11743;51.228;22.498;2022-09-19T02:33:11;6.20;99.90
23149;DHT22;11743;51.228;22.498;2022-09-19T02:33:34;6.20;99.90
23149;DHT22;11743;51.228;22.498;2022-09-19T02:34:00;6.20;99.90
23149;DHT22;11743;51.228;22.498;2022-09-19T02:34:24;6.10;99.90
23149;DHT22;11743;51.228;22.498;2022-09-19T02:34:47;6.20;99.90
23149;DHT22;11743;51.228;22.498;2022-09-19T02:35:10;6.10;99.90
23149;DHT22;11743;51.228;22.498;2022-09-19T02:37:07;6.10;99.90
23149;DHT22;11743;51.228;22.498;2022-09-19T02:37:38;6.10;99.90
23149;DHT22;11743;51.228;22.498;2022-09-19T02:38:24;6.10;99.90
23149;DHT22;11743;51.228;22.498;2022-09-19T02:39:10;6.10;99.90
23149;DHT22;11743;51.228;22.498;2022-09-19T02:39:50;6.10;99.90
23149;DHT22;11743;51.228;22.498;2022-09-19T02:40:27;6.00;99.90
23149;DHT22;11743;51.228;22.498;2022-09-19T02:41:05;6.00;99.90
23149;DHT22;11743;51.228;22.498;2022-09-19T02:41:35;6.00;99.90
23149;DHT22;11743;51.228;22.498;2022-09-19T02:42:18;6.10;99.90
23149;DHT22;11743;51.228;22.498;2022-09-19T02:43:02;6.00;99.90
23149;DHT22;11743;51.228;22.498;2022-09-19T02:43:53;6.00;99.90
23149;DHT22;11743;51.228;22.498;2022-09-19T02:44:22;6.00;99.90
23149;DHT22;11743;51.228;22.498;2022-09-19T02:45:43;6.00;99.90
23149;DHT22;11743;51.228;22.498;2022-09-19T02:46:17;6.00;99.90
23149;DHT22;11743;51.228;22.498;2022-09-19T02:47:24;6.00;99.90
23149;DHT22;11743;51.228;22.498;2022-09-19T02:48:09;6.00;99.90
23149;DHT22;11743;51.228;22.498;2022-09-19T02:49:24;6.00;99.90
23149;DHT22;11743;51.228;22.498;2022-09-19T02:50:32;6.00;99.90
23149;DHT22;11743;51.228;22.498;2022-09-19T02:50:35;6.00;99.90
23149;DHT22;11743;51.228;22.498;2022-09-19T02:51:06;5.90;99.90
23149;DHT22;11743;51.228;22.498;2022-09-19T02:51:36;5.90;99.90
23149;DHT22;11743;51.228;22.498;2022-09-19T02:52:02;5.90;99.90
23149;DHT22;11743;51.228;22.498;2022-09-19T02:52:34;5.90;99.90
23149;DHT22;11743;51.228;22.498;2022-09-19T02:52:57;5.80;99.90
23149;DHT22;11743;51.228;22.498;2022-09-19T02:53:23;5.80;99.90
23149;DHT22;11743;51.228;22.498;2022-09-19T02:53:54;5.80;99.90
23149;DHT22;11743;51.228;22.498;2022-09-19T02:54:25;5.90;99.90
23149;DHT22;11743;51.228;22.498;2022-09-19T02:54:53;5.90;99.90
23149;DHT22;11743;51.228;22.498;2022-09-19T02:55:22;5.90;99.90
23149;DHT22;11743;51.228;22.498;2022-09-19T02:55:49;6.00;99.90
23149;DHT22;11743;51.228;22.498;2022-09-19T02:56:15;6.00;99.90
23149;DHT22;11743;51.228;22.498;2022-09-19T02:56:40;6.00;99.90
23149;DHT22;11743;51.228;22.498;2022-09-19T02:57:07;6.00;99.90
23149;DHT22;11743;51.228;22.498;2022-09-19T02:57:33;6.00;99.90
23149;DHT22;11743;51.228;22.498;2022-09-19T02:57:58;6.00;99.90
23149;DHT22;11743;51.228;22.498;2022-09-19T02:58:26;6.00;99.90
23149;DHT22;11743;51.228;22.498;2022-09-19T02:58:53;6.00;99.90
23149;DHT22;11743;51.228;22.498;2022-09-19T02:59:20;6.00;99.90
23149;DHT22;11743;51.228;22.498;2022-09-19T02:59:47;6.00;99.90
23149;DHT22;11743;51.228;22.498;2022-09-19T03:00:13;6.00;99.90
23149;DHT22;11743;51.228;22.498;2022-09-19T03:00:37;5.90;99.90
23149;DHT22;11743;51.228;22.498;2022-09-19T03:01:08;5.90;99.90
23149;DHT22;11743;51.228;22.498;2022-09-19T03:01:32;5.90;99.90
23149;DHT22;11743;51.228;22.498;2022-09-19T03:02:46;5.90;99.90
23149;DHT22;11743;51.228;22.498;2022-09-19T03:03:34;5.90;99.90
23149;DHT22;11743;51.228;22.498;2022-09-19T03:04:20;5.90;99.90
23149;DHT22;11743;51.228;22.498;2022-09-19T03:04:50;5.90;99.90
23149;DHT22;11743;51.228;22.498;2022-09-19T03:05:18;5.90;99.90
23149;DHT22;11743;51.228;22.498;2022-09-19T03:05:41;5.90;99.90
23149;DHT22;11743;51.228;22.498;2022-09-19T03:06:05;5.90;99.90
23149;DHT22;11743;51.228;22.498;2022-09-19T03:06:33;5.90;99.90
23149;DHT22;11743;51.228;22.498;2022-09-19T03:07:10;5.80;99.90
23149;DHT22;11743;51.228;22.498;2022-09-19T03:07:37;5.80;99.90
23149;DHT22;11743;51.228;22.498;2022-09-19T03:08:03;5.80;99.90
23149;DHT22;11743;51.228;22.498;2022-09-19T03:08:28;5.80;99.90
23149;DHT22;11743;51.228;22.498;2022-09-19T03:08:58;5.70;99.90
23149;DHT22;11743;51.228;22.498;2022-09-19T03:09:24;5.60;99.90
23149;DHT22;11743;51.228;22.498;2022-09-19T03:10:34;5.70;99.90
23149;DHT22;11743;51.228;22.498;2022-09-19T03:10:57;5.60;99.90
23149;DHT22;11743;51.228;22.498;2022-09-19T03:11:24;5.60;99.90
23149;DHT22;11743;51.228;22.498;2022-09-19T03:11:53;5.60;99.90
23149;DHT22;11743;51.228;22.498;2022-09-19T03:12:18;5.60;99.90
23149;DHT22;11743;51.228;22.498;2022-09-19T03:12:47;5.60;99.90
23149;DHT22;11743;51.228;22.498;2022-09-19T03:13:12;5.60;99.90
23149;DHT22;11743;51.228;22.498;2022-09-19T03:13:37;5.50;99.90
23149;DHT22;11743;51.228;22.498;2022-09-19T03:14:00;5.60;99.90
23149;DHT22;11743;51.228;22.498;2022-09-19T03:14:23;5.60;99.90
23149;DHT22;11743;51.228;22.498;2022-09-19T03:14:46;5.60;99.90
23149;DHT22;11743;51.228;22.498;2022-09-19T03:15:09;5.60;99.90
23149;DHT22;11743;51.228;22.498;2022-09-19T03:15:35;5.70;99.90
23149;DHT22;11743;51.228;22.498;2022-09-19T03:16:01;5.70;99.90
23149;DHT22;11743;51.228;22.498;2022-09-19T03:16:30;5.70;99.90
23149;DHT22;11743;51.228;22.498;2022-09-19T03:16:58;5.70;99.90
23149;DHT22;11743;51.228;22.498;2022-09-19T03:17:23;5.60;99.90
23149;DHT22;11743;51.228;22.498;2022-09-19T03:17:47;5.70;99.90
23149;DHT22;11743;51.228;22.498;2022-09-19T03:18:13;5.60;99.90
23149;DHT22;11743;51.228;22.498;2022-09-19T03:18:38;5.60;99.90
23149;DHT22;11743;51.228;22.498;2022-09-19T03:19:07;5.60;99.90
23149;DHT22;11743;51.228;22.498;2022-09-19T03:19:29;5.60;99.90
23149;DHT22;11743;51.228;22.498;2022-09-19T03:19:54;5.60;99.90
23149;DHT22;11743;51.228;22.498;2022-09-19T03:20:16;5.60;99.90
23149;DHT22;11743;51.228;22.498;2022-09-19T03:20:40;5.60;99.90
23149;DHT22;11743;51.228;22.498;2022-09-19T03:21:10;5.50;99.90
23149;DHT22;11743;51.228;22.498;2022-09-19T03:21:34;5.50;99.90
23149;DHT22;11743;51.228;22.498;2022-09-19T03:21:58;5.50;99.90
23149;DHT22;11743;51.228;22.498;2022-09-19T03:22:20;5.50;99.90
23149;DHT22;11743;51.228;22.498;2022-09-19T03:22:45;5.50;99.90
23149;DHT22;11743;51.228;22.498;2022-09-19T03:23:07;5.50;99.90
23149;DHT22;11743;51.228;22.498;2022-09-19T03:23:47;5.50;99.90
23149;DHT22;11743;51.228;22.498;2022-09-19T03:24:10;5.50;99.90
23149;DHT22;11743;51.228;22.498;2022-09-19T03:24:33;5.50;99.90
23149;DHT22;11743;51.228;22.498;2022-09-19T03:24:57;5.50;99.90
23149;DHT22;11743;51.228;22.498;2022-09-19T03:25:23;5.50;99.90
23149;DHT22;11743;51.228;22.498;2022-09-19T03:25:47;5.50;99.90
23149;DHT22;11743;51.228;22.498;2022-09-19T03:26:12;5.60;99.90